createdAt,value
2023-04-10T00:18:58.088Z,94.3
2023-04-10T00:38:07.958Z,93.9
2023-04-10T00:57:20.976Z,93.7
2023-04-10T01:16:34.198Z,91.4
2023-04-10T01:35:48.829Z,85.7
2023-04-10T01:55:01.102Z,81.9
2023-04-10T02:14:16.808Z,78.6
2023-04-10T02:33:28.730Z,74.8
2023-04-10T02:52:41.835Z,74.2
2023-04-10T03:11:53.018Z,75.9
2023-04-10T03:31:03.856Z,76.5
2023-04-10T03:50:11.583Z,76.7
2023-04-10T04:09:22.570Z,76.2
2023-04-10T04:28:34.384Z,76.3
2023-04-10T04:47:47.849Z,75
2023-04-10T05:06:59.549Z,73.8
2023-04-10T05:26:10.969Z,73.9
2023-04-10T05:45:23.743Z,74.7
2023-04-10T06:04:36.835Z,73.5
2023-04-10T06:23:49.548Z,74.3
2023-04-10T06:43:02.270Z,71.3
2023-04-10T07:02:13.939Z,69
2023-04-10T07:21:25.493Z,64.2
2023-04-10T07:40:43.633Z,52
2023-04-10T08:00:06.784Z,46.8
2023-04-10T08:19:26.574Z,42.7
2023-04-10T08:38:37.487Z,43.5
2023-04-10T08:58:01.841Z,41.8
2023-04-10T09:17:07.249Z,37.3
2023-04-10T09:36:20.594Z,40.6
2023-04-10T09:55:25.041Z,43.4
2023-04-10T10:14:39.339Z,41.2
2023-04-10T10:33:47.482Z,42
2023-04-10T10:53:00.361Z,41.6
2023-04-10T11:12:11.912Z,39.8
2023-04-10T11:31:25.678Z,40.7
2023-04-10T11:50:38.930Z,38.7
2023-04-10T12:09:50.762Z,37.9
2023-04-10T12:29:03.388Z,37.7
2023-04-10T12:48:16.531Z,37.4
2023-04-10T13:07:29.490Z,39.4
2023-04-10T13:26:40.529Z,37.5
2023-04-10T13:45:52.726Z,37
2023-04-10T14:05:03.644Z,37
2023-04-10T14:24:17.140Z,35.6
2023-04-10T14:43:28.177Z,36.8
2023-04-10T15:02:38.164Z,39.1
2023-04-10T15:21:50.593Z,37.4
2023-04-10T15:41:01.920Z,40.3
2023-04-10T16:00:13.196Z,39.7
2023-04-10T16:19:25.945Z,39.9
2023-04-10T16:38:37.164Z,40.2
2023-04-10T16:57:46.852Z,40
2023-04-10T17:16:57.562Z,39.9
2023-04-10T17:36:07.455Z,40.1
2023-04-10T17:55:16.822Z,41.9
2023-04-10T18:14:26.527Z,49.7
2023-04-10T18:33:33.423Z,58.1
2023-04-10T18:52:44.579Z,62.6
2023-04-10T19:11:54.019Z,69
2023-04-10T19:31:02.887Z,74.6
2023-04-10T19:50:14.870Z,74.1
2023-04-10T20:09:25.990Z,80.2
2023-04-10T20:28:35.990Z,82.8
2023-04-10T20:47:45.206Z,92.8
2023-04-10T21:06:55.618Z,100
2023-04-10T21:26:05.294Z,98.8
2023-04-10T21:45:15.969Z,97.8
2023-04-10T22:04:28.595Z,100
2023-04-10T22:23:38.478Z,100
2023-04-10T22:42:50.203Z,100
2023-04-10T23:02:03.720Z,100
2023-04-10T23:21:15.269Z,100
2023-04-10T23:40:22.836Z,100
2023-04-10T23:59:35.261Z,100
